Time;durP1;ratioP1;P1;durP2;ratioP2;P2;SDS_P1;SDS_P2;PMS_P1;PMS_P2;Temp;Humidity;BMP_temperature;BMP_pressure;BME280_temperature;BME280_humidity;BME280_pressure;Samples;Min_cycle;Max_cycle;Signal;HPM_P1;HPM_P2
2022/05/21 00:00:45;;;;;;;12.50;6.90;;;23.80;44.20;;;;;;5019413;28;20431;-73
2022/05/21 00:03:11;;;;;;;9.37;6.50;;;23.70;43.50;;;;;;5017281;28;20971;-73
2022/05/21 00:05:39;;;;;;;10.03;6.80;;;24.10;40.00;;;;;;5016821;28;20446;-73
2022/05/21 00:08:08;;;;;;;9.13;6.73;;;23.90;41.20;;;;;;5022286;28;20429;-73
2022/05/21 00:10:34;;;;;;;10.50;6.80;;;23.70;41.70;;;;;;5025244;28;20450;-74
2022/05/21 00:13:01;;;;;;;19.60;7.07;;;23.60;40.80;;;;;;5022262;28;20473;-74
2022/05/21 00:15:30;;;;;;;15.23;7.20;;;23.30;41.50;;;;;;4995252;28;20431;-73
2022/05/21 00:17:56;;;;;;;12.07;7.00;;;23.40;41.80;;;;;;5017713;28;20596;-73
2022/05/21 00:23:20;;;;;;;9.97;6.93;;;23.40;41.70;;;;;;5017566;28;20857;-74
2022/05/21 00:25:47;;;;;;;13.63;6.50;;;23.30;42.90;;;;;;5022949;28;20447;-73
2022/05/21 00:28:13;;;;;;;11.83;6.50;;;23.20;41.50;;;;;;5021346;28;20445;-74
2022/05/21 00:30:39;;;;;;;13.83;6.73;;;23.20;41.50;;;;;;5010246;28;20450;-74
2022/05/21 00:33:06;;;;;;;8.97;6.80;;;23.00;42.90;;;;;;5017338;28;21072;-74
2022/05/21 00:35:32;;;;;;;10.87;6.23;;;23.00;42.70;;;;;;5017884;28;20524;-73
2022/05/21 00:37:58;;;;;;;12.13;6.97;;;22.90;42.70;;;;;;5019147;28;20950;-73
2022/05/21 00:40:24;;;;;;;11.40;6.90;;;23.20;41.00;;;;;;5024194;28;20441;-73
2022/05/21 00:42:50;;;;;;;10.30;6.60;;;22.90;41.20;;;;;;5019413;28;20202;-74
2022/05/21 00:45:17;;;;;;;11.40;6.93;;;22.90;42.80;;;;;;5029775;28;20934;-73
2022/05/21 00:47:42;;;;;;;11.03;7.00;;;23.00;41.60;;;;;;5019728;28;20234;-73
2022/05/21 00:50:11;;;;;;;11.33;6.17;;;23.00;41.30;;;;;;5020316;28;20442;-74
2022/05/21 00:52:38;;;;;;;9.07;6.03;;;22.60;42.90;;;;;;5016533;28;20596;-74
2022/05/21 00:55:09;;;;;;;12.10;6.50;;;22.70;42.70;;;;;;5017802;28;20476;-74
2022/05/21 00:57:48;;;;;;;9.00;6.30;;;22.30;43.80;;;;;;5020327;28;20516;-73
2022/05/21 01:00:21;;;;;;;8.43;6.20;;;22.40;43.90;;;;;;5012696;28;20438;-73
2022/05/21 01:02:49;;;;;;;9.47;6.30;;;22.60;42.80;;;;;;5017643;28;20550;-73
2022/05/21 01:05:19;;;;;;;14.77;6.97;;;22.70;41.10;;;;;;5018922;28;20457;-73
2022/05/21 01:07:46;;;;;;;14.93;6.50;;;22.50;42.50;;;;;;5025019;28;20471;-73
2022/05/21 01:10:15;;;;;;;11.20;6.43;;;22.50;41.30;;;;;;5019745;28;20521;-73
2022/05/21 01:12:45;;;;;;;8.77;6.50;;;22.50;41.50;;;;;;5020831;28;20538;-74
2022/05/21 01:15:15;;;;;;;7.50;5.80;;;22.00;44.80;;;;;;5028866;28;20407;-74
2022/05/21 01:17:40;;;;;;;11.50;6.43;;;22.20;43.70;;;;;;5026205;28;20508;-73
2022/05/21 01:20:11;;;;;;;12.13;7.30;;;22.20;41.80;;;;;;5013334;28;20428;-73
2022/05/21 01:22:42;;;;;;;10.63;6.73;;;22.20;41.70;;;;;;5022901;28;20216;-73
2022/05/21 01:25:10;;;;;;;14.20;6.47;;;22.20;41.90;;;;;;5017652;28;20439;-73
2022/05/21 01:27:35;;;;;;;11.13;6.33;;;22.10;43.60;;;;;;5023607;28;20438;-73
2022/05/21 01:30:04;;;;;;;11.50;6.60;;;22.20;43.40;;;;;;5008921;28;20794;-73
2022/05/21 01:32:30;;;;;;;10.23;6.53;;;22.40;44.50;;;;;;5003205;28;20209;-74
2022/05/21 01:34:56;;;;;;;10.20;6.50;;;22.50;42.40;;;;;;5015815;28;20437;-73
2022/05/21 01:37:23;;;;;;;11.10;6.47;;;22.40;44.10;;;;;;5014257;28;20268;-73
2022/05/21 01:39:49;;;;;;;9.00;6.83;;;22.30;42.60;;;;;;5013614;28;20487;-73
2022/05/21 01:42:15;;;;;;;8.90;6.47;;;22.30;40.90;;;;;;5020333;28;20448;-73
2022/05/21 01:44:40;;;;;;;10.17;6.47;;;22.10;41.60;;;;;;5024927;28;20945;-73
2022/05/21 01:47:08;;;;;;;10.63;5.77;;;21.90;41.10;;;;;;5031030;28;20181;-73
2022/05/21 01:49:35;;;;;;;8.00;6.00;;;21.70;42.40;;;;;;5007163;28;20196;-74
2022/05/21 01:52:02;;;;;;;8.60;5.33;;;21.30;42.90;;;;;;4997030;28;20875;-73
2022/05/21 01:54:28;;;;;;;8.77;5.70;;;21.30;42.90;;;;;;5020070;28;20792;-73
2022/05/21 01:56:53;;;;;;;8.10;5.80;;;20.80;43.20;;;;;;5014905;28;20445;-73
2022/05/21 01:59:19;;;;;;;13.67;6.47;;;20.00;47.20;;;;;;5022035;28;20481;-74
2022/05/21 02:01:46;;;;;;;7.73;5.80;;;20.50;45.40;;;;;;5016830;28;20187;-74
2022/05/21 02:04:12;;;;;;;8.70;5.90;;;20.40;45.90;;;;;;5016927;28;20214;-73
2022/05/21 02:06:37;;;;;;;11.30;5.70;;;20.80;45.20;;;;;;5022675;28;20954;-73
2022/05/21 02:09:03;;;;;;;10.07;6.30;;;21.00;44.20;;;;;;5017723;28;20188;-73
2022/05/21 02:11:29;;;;;;;9.13;5.77;;;20.50;45.70;;;;;;5014051;28;20200;-73
2022/05/21 02:13:54;;;;;;;8.77;5.97;;;20.50;46.10;;;;;;5007173;28;20205;-73
2022/05/21 02:16:20;;;;;;;9.10;5.77;;;20.60;45.10;;;;;;5024669;28;20200;-73
2022/05/21 02:18:46;;;;;;;8.90;5.90;;;20.40;46.50;;;;;;5025714;28;20216;-73
2022/05/21 02:21:11;;;;;;;6.63;5.10;;;20.20;47.30;;;;;;5009612;28;20189;-73
2022/05/21 02:23:37;;;;;;;10.53;5.53;;;20.60;46.60;;;;;;5007318;28;20226;-73
2022/05/21 02:26:02;;;;;;;9.80;5.80;;;20.40;45.70;;;;;;5020712;28;20682;-73
2022/05/21 02:28:29;;;;;;;9.37;6.07;;;20.30;45.60;;;;;;5014747;28;20267;-74
2022/05/21 02:30:55;;;;;;;10.13;6.00;;;20.60;45.40;;;;;;5015694;28;20545;-74
2022/05/21 02:33:21;;;;;;;7.10;5.40;;;20.30;46.10;;;;;;5010132;28;20451;-73
2022/05/21 02:35:47;;;;;;;22.23;5.70;;;20.30;46.20;;;;;;5019232;28;20876;-73
2022/05/21 02:40:56;;;;;;;10.33;6.27;;;20.00;47.30;;;;;;5021877;28;20227;-73
2022/05/21 02:43:22;;;;;;;7.23;5.93;;;20.00;47.30;;;;;;5017659;28;20490;-72
2022/05/21 02:45:48;;;;;;;9.00;6.00;;;20.00;47.40;;;;;;5022483;28;20439;-73
2022/05/21 02:48:14;;;;;;;16.63;6.13;;;19.50;48.80;;;;;;5010787;28;21067;-73
2022/05/21 02:50:41;;;;;;;9.20;4.80;;;18.80;49.60;;;;;;5022114;28;20207;-73
2022/05/21 02:53:14;;;;;;;8.83;5.33;;;18.30;50.60;;;;;;5018085;28;20477;-73
2022/05/21 02:55:39;;;;;;;8.73;4.57;;;18.20;51.50;;;;;;5021837;28;20543;-73
2022/05/21 02:58:05;;;;;;;8.00;5.33;;;17.90;52.10;;;;;;5006508;28;20439;-73
2022/05/21 03:00:32;;;;;;;8.27;4.93;;;18.00;49.70;;;;;;5011993;28;20239;-73
2022/05/21 03:02:58;;;;;;;6.23;4.80;;;18.10;49.00;;;;;;5024263;28;20292;-73
2022/05/21 03:05:25;;;;;;;8.97;4.90;;;18.10;48.70;;;;;;5017025;28;20443;-73
2022/05/21 03:07:52;;;;;;;8.10;4.70;;;17.90;48.90;;;;;;5017583;28;20999;-73
2022/05/21 03:10:22;;;;;;;9.60;4.87;;;18.00;48.80;;;;;;5021560;28;20450;-73
2022/05/21 03:12:53;;;;;;;6.83;4.83;;;18.10;47.10;;;;;;5024175;28;20504;-74
2022/05/21 03:15:22;;;;;;;5.50;4.27;;;18.30;45.80;;;;;;5021989;28;20400;-73
2022/05/21 03:17:48;;;;;;;6.87;4.67;;;18.20;45.90;;;;;;5021545;28;20432;-75
2022/05/21 03:20:19;;;;;;;6.73;5.00;;;18.60;44.00;;;;;;5019621;28;20435;-74
2022/05/21 03:22:45;;;;;;;9.43;5.20;;;18.40;44.30;;;;;;5017116;28;20469;-74
2022/05/21 03:25:11;;;;;;;6.30;4.50;;;18.50;45.50;;;;;;5017487;28;20964;-73
2022/05/21 03:27:37;;;;;;;8.73;4.60;;;18.90;43.40;;;;;;5027143;28;20187;-73
2022/05/21 03:30:06;;;;;;;7.20;4.60;;;19.40;41.10;;;;;;5021413;28;20436;-73
2022/05/21 03:32:31;;;;;;;6.20;4.40;;;19.60;42.10;;;;;;5020326;28;21058;-74
2022/05/21 03:34:57;;;;;;;8.47;4.80;;;19.90;40.90;;;;;;5022184;28;20535;-73
2022/05/21 03:37:23;;;;;;;6.97;4.90;;;19.70;41.10;;;;;;5026288;28;20179;-74
2022/05/21 03:39:48;;;;;;;8.43;4.47;;;19.30;39.90;;;;;;5023103;28;20399;-73
2022/05/21 03:42:14;;;;;;;6.63;4.20;;;19.00;41.60;;;;;;5021891;28;20265;-74
2022/05/21 03:44:40;;;;;;;7.10;5.00;;;18.30;42.00;;;;;;5018395;28;20181;-73
2022/05/21 03:47:05;;;;;;;12.00;4.30;;;17.70;44.40;;;;;;5025427;28;20181;-73
2022/05/21 03:49:31;;;;;;;8.23;4.73;;;17.50;45.90;;;;;;5043745;28;20181;-73
2022/05/21 03:51:57;;;;;;;5.67;4.20;;;18.00;45.80;;;;;;5017858;28;20208;-73
2022/05/21 03:54:23;;;;;;;12.20;4.50;;;18.30;43.30;;;;;;5023830;28;20259;-72
2022/05/21 03:56:49;;;;;;;6.60;4.50;;;18.90;40.60;;;;;;5016580;28;20232;-73
2022/05/21 03:59:14;;;;;;;7.73;4.63;;;19.50;40.30;;;;;;5029514;28;20429;-72
2022/05/21 04:01:41;;;;;;;8.73;4.50;;;19.50;38.70;;;;;;5030297;28;20180;-71
2022/05/21 04:04:07;;;;;;;6.00;4.27;;;19.70;38.40;;;;;;5013382;28;20195;-72
2022/05/21 04:06:33;;;;;;;5.77;4.70;;;19.70;38.80;;;;;;5023941;28;20474;-72
2022/05/21 04:08:59;;;;;;;6.47;4.50;;;19.80;37.80;;;;;;5028606;28;20441;-72
2022/05/21 04:11:25;;;;;;;5.90;4.40;;;20.10;38.20;;;;;;5024068;28;20462;-72
2022/05/21 04:13:50;;;;;;;6.17;4.57;;;19.60;39.40;;;;;;5014473;28;20213;-72
2022/05/21 04:16:16;;;;;;;6.33;4.37;;;18.50;41.00;;;;;;5020634;28;20195;-72
2022/05/21 04:18:42;;;;;;;9.87;4.60;;;18.20;42.80;;;;;;5009166;28;20180;-72
2022/05/21 04:21:07;;;;;;;6.53;4.50;;;17.70;44.20;;;;;;5022028;28;20218;-72
2022/05/21 04:23:33;;;;;;;6.80;4.47;;;17.40;46.30;;;;;;5019574;28;20211;-71
2022/05/21 04:25:59;;;;;;;6.80;4.80;;;17.40;45.80;;;;;;5003034;28;20245;-71
2022/05/21 04:28:24;;;;;;;8.83;4.50;;;17.60;45.10;;;;;;5013374;28;20195;-71
2022/05/21 04:30:50;;;;;;;6.20;4.73;;;17.90;43.40;;;;;;5009033;28;20457;-71
2022/05/21 04:33:16;;;;;;;8.20;4.50;;;18.30;43.00;;;;;;5019668;28;20203;-71
2022/05/21 04:38:26;;;;;;;6.67;4.50;;;18.20;41.30;;;;;;5008542;28;20191;-72
2022/05/21 04:40:51;;;;;;;6.87;4.80;;;17.70;44.30;;;;;;5008000;28;20431;-72
2022/05/21 04:43:17;;;;;;;6.93;4.37;;;18.50;40.30;;;;;;5018329;28;20213;-73
2022/05/21 04:45:43;;;;;;;6.10;4.47;;;18.60;40.30;;;;;;5011091;28;20670;-73
2022/05/21 04:48:09;;;;;;;8.00;4.63;;;18.50;40.20;;;;;;5011186;28;20674;-72
2022/05/21 04:50:36;;;;;;;11.10;4.83;;;18.70;39.60;;;;;;5009748;28;20269;-72
2022/05/21 04:53:02;;;;;;;7.90;4.73;;;18.90;37.80;;;;;;5014778;28;20477;-71
2022/05/21 04:55:28;;;;;;;8.40;4.80;;;18.40;40.80;;;;;;5015309;28;20437;-72
2022/05/21 04:57:53;;;;;;;9.80;4.50;;;18.50;38.30;;;;;;5019399;28;20240;-72
2022/05/21 05:00:19;;;;;;;6.23;4.30;;;18.40;40.20;;;;;;5021194;28;20187;-72
2022/05/21 05:02:45;;;;;;;8.63;4.57;;;18.90;40.60;;;;;;5008422;28;20212;-73
2022/05/21 05:05:12;;;;;;;9.80;4.73;;;18.90;37.60;;;;;;5013614;28;20504;-72
2022/05/21 05:07:39;;;;;;;7.60;4.67;;;18.20;40.00;;;;;;5012161;28;20421;-72
2022/05/21 05:10:06;;;;;;;9.20;4.33;;;18.60;40.10;;;;;;5012068;28;20427;-72
2022/05/21 05:12:32;;;;;;;8.80;4.87;;;18.80;40.20;;;;;;5012183;28;20873;-72
2022/05/21 05:14:58;;;;;;;7.50;4.60;;;18.90;39.60;;;;;;5023542;28;20414;-72
2022/05/21 05:17:24;;;;;;;11.83;5.00;;;18.90;37.20;;;;;;5020150;28;20439;-73
2022/05/21 05:19:51;;;;;;;7.43;4.80;;;18.90;38.10;;;;;;5012346;28;20469;-72
2022/05/21 05:22:16;;;;;;;8.20;4.60;;;18.50;39.90;;;;;;5023885;28;20482;-72
2022/05/21 05:24:42;;;;;;;6.50;4.77;;;18.40;39.90;;;;;;5022719;28;20885;-71
2022/05/21 05:27:08;;;;;;;8.70;4.80;;;18.60;38.20;;;;;;5017479;28;20188;-72
2022/05/21 05:29:34;;;;;;;9.33;4.80;;;18.70;37.20;;;;;;5023722;28;20191;-71
2022/05/21 05:32:00;;;;;;;8.10;4.40;;;18.10;39.80;;;;;;5005006;28;20486;-72
2022/05/21 05:34:25;;;;;;;8.90;4.60;;;18.80;39.60;;;;;;5016952;28;20438;-71
2022/05/21 05:36:51;;;;;;;13.70;5.10;;;17.90;40.70;;;;;;5017079;28;20193;-72
2022/05/21 05:39:17;;;;;;;6.40;5.03;;;17.60;42.80;;;;;;5021291;28;20189;-71
2022/05/21 05:41:43;;;;;;;8.67;5.13;;;17.40;43.00;;;;;;5023489;28;20418;-72
2022/05/21 05:44:09;;;;;;;7.30;4.70;;;17.70;41.90;;;;;;5015691;28;20965;-71
2022/05/21 05:46:35;;;;;;;7.20;4.83;;;17.60;42.80;;;;;;5018043;28;20184;-73
2022/05/21 05:49:01;;;;;;;9.33;4.80;;;17.90;40.80;;;;;;5014459;28;20662;-72
2022/05/21 05:51:27;;;;;;;8.13;4.60;;;18.00;40.30;;;;;;5011821;28;20984;-71
2022/05/21 05:53:53;;;;;;;9.53;4.77;;;17.80;40.20;;;;;;5010234;28;20454;-72
2022/05/21 05:56:19;;;;;;;10.40;5.50;;;18.10;40.80;;;;;;5012128;28;20231;-71
2022/05/21 06:01:30;;;;;;;6.70;4.80;;;18.10;39.90;;;;;;5011659;28;20415;-71
2022/05/21 06:03:55;;;;;;;6.47;4.83;;;17.50;40.00;;;;;;5011780;28;20442;-71
2022/05/21 06:06:21;;;;;;;6.80;4.17;;;16.20;42.50;;;;;;4996744;28;20188;-71
2022/05/21 06:08:47;;;;;;;12.50;4.30;;;17.30;41.50;;;;;;4990880;28;20190;-71
2022/05/21 06:11:15;;;;;;;7.63;4.60;;;17.40;41.70;;;;;;4992216;28;20514;-72
2022/05/21 06:13:40;;;;;;;5.90;4.17;;;17.40;42.10;;;;;;4992323;28;20197;-71
2022/05/21 06:16:06;;;;;;;8.20;4.27;;;17.20;42.00;;;;;;4998350;28;20877;-72
2022/05/21 06:18:32;;;;;;;8.47;4.60;;;16.90;42.80;;;;;;5011984;28;20643;-72
2022/05/21 06:21:02;;;;;;;7.30;4.30;;;17.70;41.50;;;;;;5011721;28;20191;-72
2022/05/21 06:23:28;;;;;;;10.90;4.70;;;18.10;39.50;;;;;;5011877;28;20680;-72
2022/05/21 06:25:54;;;;;;;10.13;4.87;;;18.20;38.60;;;;;;5010693;28;20416;-72
2022/05/21 06:28:20;;;;;;;5.77;4.40;;;18.40;38.50;;;;;;5011449;28;20169;-72
2022/05/21 06:30:46;;;;;;;6.13;4.30;;;18.40;38.30;;;;;;4998350;28;20502;-72
2022/05/21 06:33:27;;;;;;;12.03;4.57;;;18.30;38.40;;;;;;4993071;28;20291;-72
2022/05/21 06:36:10;;;;;;;7.90;4.10;;;17.70;39.50;;;;;;4992142;28;20407;-71
2022/05/21 06:38:36;;;;;;;5.87;3.97;;;18.00;39.80;;;;;;5002686;28;20441;-73
2022/05/21 06:41:03;;;;;;;7.13;4.43;;;18.60;37.40;;;;;;4990587;28;20523;-72
2022/05/21 06:43:28;;;;;;;12.33;4.07;;;18.80;36.40;;;;;;4992001;28;20926;-71
2022/05/21 06:45:54;;;;;;;7.43;4.00;;;18.50;37.20;;;;;;4991778;28;20511;-71
2022/05/21 06:48:20;;;;;;;6.23;4.07;;;18.10;35.70;;;;;;5009407;28;20223;-72
2022/05/21 06:50:46;;;;;;;9.00;4.57;;;17.80;37.00;;;;;;5012475;28;20181;-71
2022/05/21 06:53:12;;;;;;;6.40;3.77;;;17.80;37.60;;;;;;5001134;28;20217;-71
2022/05/21 06:55:38;;;;;;;12.90;3.93;;;18.00;37.10;;;;;;4996074;28;20416;-72
2022/05/21 06:58:04;;;;;;;8.53;4.10;;;18.10;36.00;;;;;;4995841;28;20274;-71
2022/05/21 07:00:30;;;;;;;6.57;4.27;;;18.30;36.40;;;;;;4995670;28;20495;-72
2022/05/21 07:02:55;;;;;;;7.50;3.80;;;18.40;36.20;;;;;;5001529;28;20692;-72
2022/05/21 07:08:15;;;;;;;7.00;3.53;;;19.10;33.70;;;;;;5015411;28;20587;-72
2022/05/21 07:10:41;;;;;;;18.70;3.90;;;19.10;32.30;;;;;;5015292;28;20427;-71
2022/05/21 07:13:06;;;;;;;6.17;4.10;;;18.80;33.40;;;;;;5009070;28;20472;-72
2022/05/21 07:15:32;;;;;;;6.43;3.87;;;18.90;33.60;;;;;;4995961;28;20235;-72
2022/05/21 07:18:00;;;;;;;5.90;4.40;;;19.00;33.30;;;;;;4995677;28;20213;-73
2022/05/21 07:20:27;;;;;;;5.33;4.00;;;18.80;34.40;;;;;;4995600;28;20176;-73
2022/05/21 07:22:53;;;;;;;8.10;4.37;;;18.90;33.90;;;;;;4994784;28;20460;-73
2022/05/21 07:25:23;;;;;;;6.50;3.67;;;18.90;34.40;;;;;;4995395;28;20413;-72
2022/05/21 07:27:50;;;;;;;6.23;3.80;;;18.60;35.50;;;;;;5002543;28;20439;-72
2022/05/21 07:30:16;;;;;;;9.20;4.43;;;18.40;35.90;;;;;;5014995;28;20411;-72
2022/05/21 07:32:42;;;;;;;8.13;3.67;;;18.90;34.40;;;;;;5014557;28;20834;-72
2022/05/21 07:35:13;;;;;;;6.23;4.77;;;19.10;34.20;;;;;;5014533;28;20409;-72
2022/05/21 07:37:40;;;;;;;6.23;4.13;;;19.20;33.80;;;;;;5008887;28;20181;-72
2022/05/21 07:40:11;;;;;;;8.67;3.73;;;19.80;33.90;;;;;;4995158;28;20409;-72
2022/05/21 07:42:37;;;;;;;5.43;3.90;;;19.50;32.00;;;;;;4994897;28;20442;-72
2022/05/21 07:45:05;;;;;;;5.67;3.87;;;19.20;33.50;;;;;;4995098;28;20433;-73
2022/05/21 07:47:31;;;;;;;8.27;4.33;;;20.00;32.10;;;;;;4995760;28;20419;-72
2022/05/21 07:49:57;;;;;;;6.93;3.97;;;20.00;31.00;;;;;;4994884;28;20459;-73
2022/05/21 07:52:24;;;;;;;5.10;3.40;;;20.60;31.50;;;;;;4994656;28;20260;-74
2022/05/21 07:54:50;;;;;;;6.20;3.40;;;20.20;32.20;;;;;;4995012;28;20433;-72
2022/05/21 07:57:16;;;;;;;4.70;3.23;;;19.60;32.20;;;;;;4994681;28;20907;-72
2022/05/21 07:59:42;;;;;;;5.40;3.53;;;19.00;32.60;;;;;;4994860;28;20425;-72
2022/05/21 08:02:12;;;;;;;5.83;3.27;;;18.70;33.40;;;;;;4994751;28;20792;-72
2022/05/21 08:04:39;;;;;;;8.17;3.70;;;18.70;33.80;;;;;;4994397;28;20183;-72
2022/05/21 08:07:04;;;;;;;5.23;3.80;;;18.60;33.50;;;;;;4994542;28;20417;-73
2022/05/21 08:09:30;;;;;;;6.37;3.67;;;18.80;35.00;;;;;;4994635;28;20490;-73
2022/05/21 08:11:56;;;;;;;5.70;3.10;;;19.30;33.20;;;;;;4994297;28;20580;-73
2022/05/21 08:14:23;;;;;;;5.10;3.70;;;20.00;31.50;;;;;;5010081;28;20419;-73
2022/05/21 08:16:49;;;;;;;5.23;3.63;;;20.40;30.00;;;;;;5014160;28;20409;-73
2022/05/21 08:19:15;;;;;;;5.60;3.23;;;20.60;29.60;;;;;;5012636;28;20818;-73
2022/05/21 08:21:41;;;;;;;5.13;3.03;;;20.50;29.40;;;;;;5013596;28;20420;-72
2022/05/21 08:26:56;;;;;;;6.93;2.60;;;20.30;28.10;;;;;;5014072;28;20279;-72
2022/05/21 08:29:31;;;;;;;4.80;2.70;;;20.00;28.00;;;;;;4997511;28;20481;-72
2022/05/21 08:31:57;;;;;;;3.47;2.60;;;19.70;27.50;;;;;;4993764;28;20471;-73
2022/05/21 08:34:25;;;;;;;4.47;2.80;;;20.10;28.40;;;;;;4993689;28;20408;-72
2022/05/21 08:36:51;;;;;;;8.90;2.80;;;20.00;27.70;;;;;;4993925;28;20971;-73
2022/05/21 08:39:17;;;;;;;6.80;3.30;;;20.80;28.30;;;;;;4993805;28;20466;-73
2022/05/21 08:42:08;;;;;;;3.77;2.73;;;21.10;27.30;;;;;;4993497;28;20175;-73
2022/05/21 08:44:47;;;;;;;5.10;2.53;;;20.60;27.80;;;;;;4993667;28;20408;-73
2022/05/21 08:47:22;;;;;;;9.80;3.00;;;20.20;27.80;;;;;;4993862;28;20416;-73
2022/05/21 08:49:56;;;;;;;4.20;3.00;;;20.10;28.20;;;;;;5009820;28;20425;-73
2022/05/21 08:52:35;;;;;;;5.37;2.40;;;20.30;27.90;;;;;;5012843;28;20474;-73
2022/05/21 08:55:04;;;;;;;3.40;2.30;;;20.50;26.30;;;;;;5013236;28;20408;-73
2022/05/21 08:57:52;;;;;;;3.93;2.10;;;19.70;26.70;;;;;;5013046;28;20416;-73
2022/05/21 09:00:37;;;;;;;4.40;2.67;;;19.70;26.50;;;;;;5013178;28;20752;-74
2022/05/21 09:03:09;;;;;;;5.30;2.37;;;20.30;27.20;;;;;;5012827;28;20493;-73
2022/05/21 09:05:37;;;;;;;7.10;2.10;;;20.30;26.20;;;;;;4994277;28;20438;-73
2022/05/21 09:08:22;;;;;;;3.60;2.30;;;20.40;26.30;;;;;;4993091;28;20542;-73
2022/05/21 09:11:06;;;;;;;3.30;2.40;;;20.00;26.00;;;;;;4993439;28;20624;-73
2022/05/21 09:13:44;;;;;;;3.20;2.20;;;20.50;24.60;;;;;;4992876;28;20434;-74
2022/05/21 09:18:57;;;;;;;4.43;2.40;;;20.90;25.80;;;;;;4993103;28;20427;-73
2022/05/21 09:21:25;;;;;;;4.50;2.40;;;21.00;24.50;;;;;;4992640;28;20437;-73
2022/05/21 09:23:57;;;;;;;3.43;2.00;;;20.90;25.00;;;;;;4992462;28;20490;-72
2022/05/21 09:26:30;;;;;;;2.57;2.10;;;21.10;24.60;;;;;;4992678;28;20402;-72
2022/05/21 09:29:18;;;;;;;3.87;1.93;;;20.50;25.10;;;;;;4992697;28;20929;-72
2022/05/21 09:31:44;;;;;;;2.57;2.03;;;20.70;24.30;;;;;;4992684;28;20450;-72
2022/05/21 09:34:28;;;;;;;10.53;1.90;;;21.50;23.30;;;;;;4993245;28;20502;-72
2022/05/21 09:36:55;;;;;;;2.70;2.00;;;20.80;23.60;;;;;;4992680;28;20397;-72
2022/05/21 09:39:33;;;;;;;2.70;2.00;;;20.70;23.90;;;;;;4993850;28;21010;-72
2022/05/21 09:45:22;;;;;;;3.17;1.97;;;21.10;22.50;;;;;;4971351;28;20513;-72
2022/05/21 09:47:49;;;;;;;12.53;2.13;;;21.30;23.50;;;;;;4992523;28;20439;-72
2022/05/21 09:50:23;;;;;;;3.10;2.10;;;21.00;23.90;;;;;;4998638;28;20858;-72
2022/05/21 09:52:50;;;;;;;3.57;2.00;;;21.30;23.00;;;;;;4991828;28;20456;-72
2022/05/21 09:55:26;;;;;;;3.30;2.00;;;21.30;23.40;;;;;;4992084;28;20398;-72
2022/05/21 09:57:52;;;;;;;3.00;2.03;;;21.20;23.20;;;;;;4992014;28;20462;-72
2022/05/21 10:00:35;;;;;;;4.70;2.20;;;21.20;23.40;;;;;;4994144;28;20447;-72
2022/05/21 10:03:04;;;;;;;5.77;2.30;;;21.90;24.00;;;;;;5011573;28;20845;-72
2022/05/21 10:05:40;;;;;;;5.13;2.20;;;22.20;22.20;;;;;;5011657;28;20774;-72
2022/05/21 10:11:10;;;;;;;3.00;2.00;;;22.10;22.30;;;;;;4992247;28;20455;-72
2022/05/21 10:13:47;;;;;;;4.50;1.97;;;21.90;23.50;;;;;;4991770;28;20439;-73
2022/05/21 10:16:35;;;;;;;3.73;1.97;;;22.80;22.10;;;;;;4991974;28;20393;-71
2022/05/21 10:19:12;;;;;;;3.33;2.40;;;22.50;21.60;;;;;;4993725;28;20860;-71
2022/05/21 10:22:12;;;;;;;3.07;2.00;;;21.90;22.70;;;;;;4991546;28;20419;-71
2022/05/21 10:24:49;;;;;;;2.80;2.20;;;22.10;22.60;;;;;;4999471;28;20440;-71
2022/05/21 10:27:52;;;;;;;3.40;2.10;;;22.60;22.30;;;;;;4991878;28;20487;-71
2022/05/21 10:30:40;;;;;;;3.37;2.10;;;22.30;21.70;;;;;;4990468;28;20412;-71
2022/05/21 10:33:24;;;;;;;3.80;2.23;;;21.90;22.00;;;;;;4990725;28;20514;-71
2022/05/21 10:36:03;;;;;;;5.90;2.40;;;22.10;22.50;;;;;;5005857;28;20423;-71
2022/05/21 10:38:53;;;;;;;2.77;2.10;;;22.10;22.40;;;;;;5011276;28;20958;-70
2022/05/21 10:41:41;;;;;;;2.80;1.87;;;22.50;21.60;;;;;;5009867;28;20797;-71
2022/05/21 10:44:34;;;;;;;2.70;2.10;;;22.80;21.20;;;;;;5011312;28;20844;-71
2022/05/21 10:47:18;;;;;;;3.00;2.13;;;23.60;21.00;;;;;;5009117;28;20420;-72
2022/05/21 10:50:04;;;;;;;3.20;2.00;;;24.00;20.00;;;;;;5011254;28;20408;-72
2022/05/21 10:52:35;;;;;;;2.40;2.10;;;24.00;20.20;;;;;;5010911;28;20467;-71
2022/05/21 10:55:17;;;;;;;4.70;2.00;;;23.40;20.40;;;;;;5010975;28;20420;-71
2022/05/21 10:58:08;;;;;;;4.73;2.20;;;22.50;22.10;;;;;;5006902;28;20447;-72
2022/05/21 11:00:43;;;;;;;2.77;1.83;;;23.70;21.80;;;;;;4992005;28;20436;-72
2022/05/21 11:03:27;;;;;;;2.70;1.90;;;23.60;19.50;;;;;;4991466;28;20450;-72
2022/05/21 11:06:07;;;;;;;3.90;1.97;;;24.20;21.60;;;;;;4991406;28;20404;-71
2022/05/21 11:08:42;;;;;;;3.23;1.97;;;24.90;19.00;;;;;;5010514;28;20911;-71
2022/05/21 11:11:22;;;;;;;3.07;2.10;;;25.40;19.40;;;;;;5010954;28;20891;-72
2022/05/21 11:14:06;;;;;;;2.93;1.90;;;24.80;19.70;;;;;;5010813;28;20428;-71
2022/05/21 11:16:43;;;;;;;3.33;2.10;;;24.50;20.10;;;;;;5011024;28;20419;-71
2022/05/21 11:19:20;;;;;;;2.73;2.10;;;25.70;18.50;;;;;;5009011;28;20506;-71
2022/05/21 11:21:58;;;;;;;2.20;1.80;;;26.00;18.30;;;;;;5010505;28;20505;-71
2022/05/21 11:24:51;;;;;;;3.47;2.10;;;25.80;19.00;;;;;;5010808;28;20876;-72
2022/05/21 11:27:24;;;;;;;3.43;2.07;;;26.30;17.30;;;;;;5010856;28;20504;-72
2022/05/21 11:30:04;;;;;;;5.50;2.23;;;28.20;18.80;;;;;;5008888;28;20932;-72
2022/05/21 11:38:22;;;;;;;2.53;1.80;;;30.10;12.70;;;;;;5011940;28;20788;-72
2022/05/21 11:44:55;;;;;;;2.10;1.67;;;29.20;12.90;;;;;;4994693;28;20512;-72
2022/05/21 11:46:45;;;;;;;2.50;1.60;;;28.60;14.10;;;;;;4994628;28;20420;-72
2022/05/21 11:49:26;;;;;;;5.40;1.67;;;29.40;12.70;;;;;;4995613;28;20438;-72
2022/05/21 11:51:52;;;;;;;3.13;1.60;;;28.40;15.00;;;;;;5007581;28;20562;-72
2022/05/21 11:54:47;;;;;;;1.90;1.60;;;27.90;14.00;;;;;;5016072;28;20940;-72
2022/05/21 11:57:48;;;;;;;2.00;1.60;;;28.00;15.00;;;;;;5021224;28;20501;-72
2022/05/21 12:00:17;;;;;;;5.77;1.60;;;28.20;13.60;;;;;;5014563;28;20443;-73
2022/05/21 12:02:54;;;;;;;2.30;1.77;;;28.90;13.10;;;;;;5011155;28;20494;-72
2022/05/21 12:05:40;;;;;;;2.03;1.53;;;28.30;14.00;;;;;;5012710;28;20440;-72
2022/05/21 12:08:08;;;;;;;2.60;1.67;;;27.50;14.50;;;;;;5000778;28;21153;-72
2022/05/21 12:10:53;;;;;;;2.97;1.60;;;27.90;14.00;;;;;;5009239;28;20522;-74
2022/05/21 12:13:21;;;;;;;3.23;2.10;;;27.80;12.60;;;;;;5009308;28;20473;-73
2022/05/21 12:15:52;;;;;;;4.83;1.70;;;29.00;14.00;;;;;;5014540;28;20447;-73
2022/05/21 12:18:38;;;;;;;2.40;1.50;;;30.30;11.70;;;;;;5014765;28;20458;-72
2022/05/21 12:21:06;;;;;;;2.77;1.60;;;30.80;10.00;;;;;;5015120;28;21371;-73
2022/05/21 12:23:32;;;;;;;2.03;1.40;;;29.20;10.70;;;;;;5009355;28;20821;-73
2022/05/21 12:26:06;;;;;;;1.80;1.53;;;27.60;12.50;;;;;;5009094;28;20463;-73
2022/05/21 12:28:42;;;;;;;2.97;1.50;;;26.60;14.20;;;;;;5007621;28;20204;-73
2022/05/21 12:31:12;;;;;;;2.27;1.50;;;26.40;14.50;;;;;;5006059;28;20463;-74
2022/05/21 12:33:49;;;;;;;3.40;1.47;;;26.10;13.50;;;;;;5000655;28;20466;-73
2022/05/21 12:36:39;;;;;;;2.40;1.40;;;26.60;14.10;;;;;;5005707;28;20439;-73
2022/05/21 12:39:09;;;;;;;1.70;1.30;;;26.50;13.10;;;;;;5005528;28;20440;-72
2022/05/21 12:41:40;;;;;;;2.00;1.47;;;26.10;13.00;;;;;;5010294;28;20432;-73
2022/05/21 12:44:06;;;;;;;2.00;1.43;;;25.50;14.70;;;;;;5010319;28;20524;-72
2022/05/21 12:46:35;;;;;;;3.23;1.40;;;25.90;14.10;;;;;;5007910;28;20871;-73
2022/05/21 12:49:11;;;;;;;4.03;1.47;;;26.60;13.10;;;;;;5009701;28;20443;-73
2022/05/21 12:51:46;;;;;;;6.43;1.70;;;26.20;12.60;;;;;;5000898;28;20463;-72
2022/05/21 12:54:33;;;;;;;2.90;1.50;;;25.90;13.30;;;;;;5003183;28;20439;-72
2022/05/21 12:57:11;;;;;;;2.93;1.50;;;26.10;11.70;;;;;;5011903;28;20829;-73
2022/05/21 12:59:39;;;;;;;1.80;1.30;;;26.70;12.40;;;;;;5002195;28;20881;-73
2022/05/21 13:02:20;;;;;;;2.57;1.47;;;26.70;12.60;;;;;;5008815;28;20511;-72
2022/05/21 13:04:48;;;;;;;1.90;1.40;;;26.60;12.30;;;;;;5001980;28;20458;-73
2022/05/21 13:07:30;;;;;;;3.80;1.63;;;27.50;10.60;;;;;;5009893;28;20526;-72
2022/05/21 13:10:26;;;;;;;2.30;1.50;;;28.10;10.70;;;;;;4995187;28;20490;-71
2022/05/21 13:13:17;;;;;;;2.30;1.57;;;26.50;12.30;;;;;;5003064;28;20483;-72
2022/05/21 13:16:05;;;;;;;2.80;1.53;;;25.90;13.20;;;;;;5004743;28;20834;-71
2022/05/21 13:19:05;;;;;;;3.93;1.60;;;26.20;12.50;;;;;;5008792;28;20439;-72
2022/05/21 13:21:52;;;;;;;2.60;1.60;;;26.40;11.20;;;;;;5011768;28;20431;-72
2022/05/21 13:24:46;;;;;;;1.80;1.40;;;26.50;12.30;;;;;;5014823;28;20469;-72
2022/05/21 13:27:17;;;;;;;2.10;1.30;;;26.80;11.20;;;;;;5007863;28;20436;-72
2022/05/21 13:29:45;;;;;;;2.33;1.40;;;26.50;12.00;;;;;;5006226;28;20445;-73
2022/05/21 13:32:16;;;;;;;2.00;1.40;;;26.70;11.80;;;;;;5006275;28;20471;-72
2022/05/21 13:34:41;;;;;;;3.27;1.60;;;27.00;11.10;;;;;;5015635;28;20799;-73
2022/05/21 13:37:07;;;;;;;2.17;1.53;;;27.20;10.90;;;;;;5016787;28;20444;-73